Time;durP1;ratioP1;P1;durP2;ratioP2;P2;SDS_P1;SDS_P2;PMS_P1;PMS_P2;Temp;Humidity;BMP_temperature;BMP_pressure;BME280_temperature;BME280_humidity;BME280_pressure;Samples;Min_cycle;Max_cycle;Signal;HPM_P1;HPM_P2
2023/04/21 00:00:31;;;;;;;8.57;5.30;;;;;;;;;;6214041;23;20168;-92
2023/04/21 00:03:37;;;;;;;9.07;5.00;;;;;;;;;;6213848;23;20152;-92
2023/04/21 00:06:43;;;;;;;9.10;5.22;;;;;;;;;;6213356;23;20187;-93
2023/04/21 00:09:49;;;;;;;14.52;6.30;;;;;;;;;;6213727;23;20262;-94
2023/04/21 00:12:54;;;;;;;16.95;6.22;;;;;;;;;;6211992;23;20335;-95
2023/04/21 00:16:08;;;;;;;17.25;7.00;;;;;;;;;;6213279;23;20151;-92
2023/04/21 00:19:14;;;;;;;17.55;6.60;;;;;;;;;;6212873;23;20151;-91
2023/04/21 00:22:20;;;;;;;10.32;4.93;;;;;;;;;;6214865;23;20206;-91
2023/04/21 00:25:27;;;;;;;8.85;4.25;;;;;;;;;;6213793;23;20156;-94
2023/04/21 00:28:33;;;;;;;10.05;4.75;;;;;;;;;;6212670;23;20191;-90
2023/04/21 00:31:38;;;;;;;9.95;4.65;;;;;;;;;;6214690;23;20151;-93
2023/04/21 00:34:43;;;;;;;7.47;4.57;;;;;;;;;;6213909;23;20170;-90
2023/04/21 00:37:50;;;;;;;6.75;4.00;;;;;;;;;;6213071;23;20187;-92
2023/04/21 00:40:57;;;;;;;8.20;4.25;;;;;;;;;;6213830;23;20244;-92
2023/04/21 00:44:03;;;;;;;7.95;4.43;;;;;;;;;;6214255;23;20167;-89
2023/04/21 00:47:16;;;;;;;6.93;4.35;;;;;;;;;;6212616;23;20242;-91
2023/04/21 00:50:21;;;;;;;12.38;4.55;;;;;;;;;;6213238;23;20175;-92
2023/04/21 00:53:27;;;;;;;15.00;5.22;;;;;;;;;;6213197;23;20167;-91
2023/04/21 00:56:34;;;;;;;8.25;3.90;;;;;;;;;;6212534;23;20174;-91
2023/04/21 00:59:40;;;;;;;7.75;4.32;;;;;;;;;;6212225;23;20666;-94
2023/04/21 01:02:45;;;;;;;8.32;4.10;;;;;;;;;;6212053;23;20250;-92
2023/04/21 01:05:53;;;;;;;7.50;4.18;;;;;;;;;;6212393;23;20155;-93
2023/04/21 01:08:59;;;;;;;7.50;4.22;;;;;;;;;;6211206;23;20175;-90
2023/04/21 01:12:08;;;;;;;7.57;3.95;;;;;;;;;;6213212;23;20202;-92
2023/04/21 01:15:18;;;;;;;8.77;4.03;;;;;;;;;;6230821;23;20167;-92
2023/04/21 01:18:23;;;;;;;6.95;3.85;;;;;;;;;;6212389;23;20290;-92
2023/04/21 01:25:04;;;;;;;8.15;4.35;;;;;;;;;;6213545;23;20167;-94
2023/04/21 01:28:09;;;;;;;11.52;3.97;;;;;;;;;;6213381;23;20195;-92
2023/04/21 01:31:15;;;;;;;9.60;5.63;;;;;;;;;;6213518;23;20167;-93
2023/04/21 01:34:22;;;;;;;6.22;3.92;;;;;;;;;;6212125;23;20155;-92
2023/04/21 01:37:28;;;;;;;8.27;4.32;;;;;;;;;;6211106;23;20171;-93
2023/04/21 01:40:35;;;;;;;8.15;4.57;;;;;;;;;;6213395;23;20167;-92
2023/04/21 01:43:40;;;;;;;8.77;4.93;;;;;;;;;;6211923;23;20167;-93
2023/04/21 01:46:45;;;;;;;11.65;4.60;;;;;;;;;;6212442;23;20232;-92
2023/04/21 01:49:51;;;;;;;8.27;3.95;;;;;;;;;;6211402;23;20168;-92
2023/04/21 01:52:57;;;;;;;11.35;4.90;;;;;;;;;;6211231;23;20191;-92
2023/04/21 01:56:03;;;;;;;8.90;4.85;;;;;;;;;;6212065;23;20155;-92
2023/04/21 01:59:10;;;;;;;7.95;4.80;;;;;;;;;;6212379;23;20223;-93
2023/04/21 02:02:15;;;;;;;11.15;4.90;;;;;;;;;;6211959;23;20179;-93
2023/04/21 02:05:20;;;;;;;7.38;4.68;;;;;;;;;;6210827;23;20260;-90
2023/04/21 02:08:25;;;;;;;7.90;4.82;;;;;;;;;;6211108;23;20211;-91
2023/04/21 02:11:31;;;;;;;14.05;6.10;;;;;;;;;;6209935;23;20210;-93
2023/04/21 02:14:46;;;;;;;12.02;5.95;;;;;;;;;;6210890;23;20171;-90
2023/04/21 02:17:51;;;;;;;14.38;5.75;;;;;;;;;;6210796;23;20191;-91
2023/04/21 02:20:56;;;;;;;9.65;5.68;;;;;;;;;;6208979;23;20210;-92
2023/04/21 02:24:02;;;;;;;9.82;5.30;;;;;;;;;;6210233;23;20167;-92
2023/04/21 02:27:10;;;;;;;15.10;6.40;;;;;;;;;;6209476;23;20195;-91
2023/04/21 02:30:16;;;;;;;16.88;6.43;;;;;;;;;;6210917;23;20162;-92
2023/04/21 02:33:21;;;;;;;14.02;6.03;;;;;;;;;;6212350;23;20174;-94
2023/04/21 02:36:29;;;;;;;16.92;7.18;;;;;;;;;;6211182;23;20222;-92
2023/04/21 02:39:39;;;;;;;12.00;6.50;;;;;;;;;;6212289;23;20194;-93
2023/04/21 02:42:46;;;;;;;10.77;6.32;;;;;;;;;;6210023;23;20238;-92
2023/04/21 02:45:52;;;;;;;13.98;6.97;;;;;;;;;;6211120;23;20151;-92
2023/04/21 02:48:57;;;;;;;16.17;8.15;;;;;;;;;;6210579;23;20246;-93
2023/04/21 02:52:02;;;;;;;14.77;7.85;;;;;;;;;;6210696;23;20171;-93
2023/04/21 02:55:08;;;;;;;19.02;8.00;;;;;;;;;;6212531;23;20151;-92
2023/04/21 02:58:15;;;;;;;20.70;9.27;;;;;;;;;;6210859;23;20212;-94
2023/04/21 03:01:20;;;;;;;23.50;9.63;;;;;;;;;;6210931;23;20181;-94
2023/04/21 03:04:26;;;;;;;24.17;10.57;;;;;;;;;;6212410;23;20167;-93
2023/04/21 03:07:31;;;;;;;20.45;9.20;;;;;;;;;;6212131;23;20318;-91
2023/04/21 03:10:37;;;;;;;24.10;10.13;;;;;;;;;;6211739;23;20167;-93
2023/04/21 03:13:45;;;;;;;41.78;12.75;;;;;;;;;;6210901;23;20635;-91
2023/04/21 03:17:25;;;;;;;29.67;11.57;;;;;;;;;;6212568;23;20158;-90
2023/04/21 03:20:30;;;;;;;31.75;12.65;;;;;;;;;;6214285;23;20164;-91
2023/04/21 03:23:45;;;;;;;35.03;13.02;;;;;;;;;;6213061;23;20167;-92
2023/04/21 03:26:55;;;;;;;34.73;12.40;;;;;;;;;;6214251;23;20162;-92
2023/04/21 03:30:03;;;;;;;28.77;12.50;;;;;;;;;;6214732;23;20658;-94
2023/04/21 03:33:08;;;;;;;33.77;13.23;;;;;;;;;;6213308;23;20244;-93
2023/04/21 03:36:14;;;;;;;38.10;13.60;;;;;;;;;;6212994;23;20207;-92
2023/04/21 03:39:19;;;;;;;29.33;12.17;;;;;;;;;;6213664;23;20295;-92
2023/04/21 03:42:25;;;;;;;31.02;13.23;;;;;;;;;;6212173;23;20183;-93
2023/04/21 03:45:31;;;;;;;32.33;13.00;;;;;;;;;;6213298;23;20155;-91
2023/04/21 03:48:46;;;;;;;27.40;11.90;;;;;;;;;;6212829;23;20307;-89
2023/04/21 03:51:51;;;;;;;31.33;12.13;;;;;;;;;;6214561;23;20219;-92
2023/04/21 03:54:56;;;;;;;28.27;12.33;;;;;;;;;;6213299;23;20167;-95
2023/04/21 03:58:01;;;;;;;23.73;11.53;;;;;;;;;;6213751;23;20210;-91
2023/04/21 04:01:09;;;;;;;26.00;11.43;;;;;;;;;;6214321;23;20175;-90
2023/04/21 04:04:15;;;;;;;28.17;11.47;;;;;;;;;;6213517;23;20537;-92
2023/04/21 04:07:20;;;;;;;24.83;12.20;;;;;;;;;;6213781;23;20179;-92
2023/04/21 04:10:25;;;;;;;25.40;12.30;;;;;;;;;;6214370;23;20167;-92
2023/04/21 04:13:32;;;;;;;26.50;10.87;;;;;;;;;;6213577;23;20168;-91
2023/04/21 04:16:40;;;;;;;24.93;10.53;;;;;;;;;;6214103;23;20164;-91
2023/04/21 04:19:45;;;;;;;22.53;10.70;;;;;;;;;;6215272;23;20194;-92
2023/04/21 04:22:55;;;;;;;23.03;10.83;;;;;;;;;;6214256;23;20167;-92
2023/04/21 04:26:04;;;;;;;25.80;11.63;;;;;;;;;;6214809;23;20164;-91
2023/04/21 04:29:12;;;;;;;29.13;12.17;;;;;;;;;;6214837;23;20194;-92
2023/04/21 04:32:20;;;;;;;26.53;11.17;;;;;;;;;;6217092;23;20172;-94
2023/04/21 04:35:26;;;;;;;27.80;11.43;;;;;;;;;;6218384;23;20171;-92
2023/04/21 04:38:33;;;;;;;25.30;11.60;;;;;;;;;;6217988;23;20190;-91
2023/04/21 04:41:40;;;;;;;25.80;12.20;;;;;;;;;;6215180;23;20222;-91
2023/04/21 04:44:46;;;;;;;26.40;11.83;;;;;;;;;;6216961;23;20167;-93
2023/04/21 04:47:54;;;;;;;27.03;10.57;;;;;;;;;;6216638;23;20187;-91
2023/04/21 04:50:59;;;;;;;24.27;11.10;;;;;;;;;;6216980;23;20183;-93
2023/04/21 04:54:11;;;;;;;24.83;10.43;;;;;;;;;;6216253;23;20168;-90
2023/04/21 04:57:17;;;;;;;21.00;9.33;;;;;;;;;;6215990;23;20151;-90
2023/04/21 05:00:23;;;;;;;19.20;9.17;;;;;;;;;;6215418;23;20266;-91
2023/04/21 05:03:30;;;;;;;29.57;9.70;;;;;;;;;;6215559;23;20174;-90
2023/04/21 05:06:36;;;;;;;15.53;7.67;;;;;;;;;;6214609;23;20167;-90
2023/04/21 05:09:41;;;;;;;20.43;9.20;;;;;;;;;;6213866;23;20198;-91
2023/04/21 05:12:47;;;;;;;17.23;8.50;;;;;;;;;;6212739;23;20212;-92
2023/04/21 05:15:57;;;;;;;21.53;9.13;;;;;;;;;;6215460;23;20167;-92
2023/04/21 05:19:09;;;;;;;31.07;9.20;;;;;;;;;;6217767;23;20255;-92
2023/04/21 05:22:15;;;;;;;19.50;8.93;;;;;;;;;;6217992;23;20191;-93
2023/04/21 05:25:20;;;;;;;21.87;9.20;;;;;;;;;;6218407;23;20199;-94
2023/04/21 05:28:28;;;;;;;17.08;8.80;;;;;;;;;;6217301;23;20259;-93
2023/04/21 05:31:34;;;;;;;20.08;8.85;;;;;;;;;;6218179;23;20206;-89
2023/04/21 05:34:43;;;;;;;24.30;10.83;;;;;;;;;;6213462;23;20151;-89
2023/04/21 05:37:48;;;;;;;17.15;9.05;;;;;;;;;;6215931;23;20166;-92
2023/04/21 05:40:55;;;;;;;15.65;8.85;;;;;;;;;;6213809;23;20245;-91
2023/04/21 05:44:00;;;;;;;23.27;8.55;;;;;;;;;;6213504;23;20239;-93
2023/04/21 05:51:27;;;;;;;23.63;9.93;;;;;;;;;;6232147;23;20167;-93
2023/04/21 05:54:33;;;;;;;26.23;9.07;;;;;;;;;;6212240;23;20694;-93
2023/04/21 05:57:42;;;;;;;20.65;8.75;;;;;;;;;;6212988;23;20186;-92
2023/04/21 06:00:50;;;;;;;17.98;7.95;;;;;;;;;;6215174;23;20163;-92
2023/04/21 06:04:04;;;;;;;20.75;9.05;;;;;;;;;;6212961;23;20567;-92
2023/04/21 06:07:13;;;;;;;24.27;8.32;;;;;;;;;;6217024;23;20220;-94
2023/04/21 06:10:19;;;;;;;17.90;8.63;;;;;;;;;;6216187;23;20159;-94
2023/04/21 06:13:26;;;;;;;20.90;9.13;;;;;;;;;;6213837;23;20194;-92
2023/04/21 06:20:52;;;;;;;23.65;9.40;;;;;;;;;;6232723;23;20278;-91
2023/04/21 06:24:02;;;;;;;22.45;9.40;;;;;;;;;;6214662;23;20163;-93
2023/04/21 06:27:13;;;;;;;40.90;11.20;;;;;;;;;;6215531;23;20175;-92
2023/04/21 06:30:18;;;;;;;47.75;11.25;;;;;;;;;;6215748;23;20190;-94
2023/04/21 06:33:25;;;;;;;51.38;15.90;;;;;;;;;;6218627;23;20603;-93
2023/04/21 06:36:31;;;;;;;32.60;11.93;;;;;;;;;;6216740;23;20163;-91
2023/04/21 06:39:38;;;;;;;19.23;9.75;;;;;;;;;;6213768;23;20193;-93
2023/04/21 06:42:43;;;;;;;14.98;8.60;;;;;;;;;;6216830;23;20163;-93
2023/04/21 06:45:49;;;;;;;44.65;15.95;;;;;;;;;;6216928;23;20171;-92
2023/04/21 06:49:00;;;;;;;31.88;9.02;;;;;;;;;;6211779;23;20592;-91
2023/04/21 06:52:06;;;;;;;21.05;9.40;;;;;;;;;;6216915;23;20222;-92
2023/04/21 06:55:13;;;;;;;23.65;10.40;;;;;;;;;;6216063;23;20175;-94
2023/04/21 06:58:23;;;;;;;16.65;9.13;;;;;;;;;;6215974;23;20178;-93
2023/04/21 07:01:29;;;;;;;45.25;10.40;;;;;;;;;;6217505;23;20171;-89
2023/04/21 07:04:35;;;;;;;166.18;14.10;;;;;;;;;;6216786;23;20163;-94
2023/04/21 07:07:45;;;;;;;15.18;6.78;;;;;;;;;;6218550;23;20622;-93
2023/04/21 07:10:54;;;;;;;70.97;8.38;;;;;;;;;;6217321;23;20189;-93
2023/04/21 07:14:01;;;;;;;39.60;9.18;;;;;;;;;;6220137;23;20172;-94
2023/04/21 07:17:16;;;;;;;67.90;9.93;;;;;;;;;;6218746;23;20171;-94
2023/04/21 07:20:21;;;;;;;16.90;6.65;;;;;;;;;;6215997;23;20176;-94
2023/04/21 07:23:40;;;;;;;35.28;7.30;;;;;;;;;;6216090;23;20172;-92
2023/04/21 07:26:51;;;;;;;17.75;6.30;;;;;;;;;;6217854;23;20171;-91
2023/04/21 07:29:57;;;;;;;14.98;6.88;;;;;;;;;;6199850;23;20348;-91
2023/04/21 07:33:03;;;;;;;11.77;7.00;;;;;;;;;;6219032;23;20204;-91
2023/04/21 07:36:10;;;;;;;40.05;9.00;;;;;;;;;;6218514;23;20175;-93
2023/04/21 07:39:16;;;;;;;27.00;7.28;;;;;;;;;;6216749;23;20247;-92
2023/04/21 07:42:32;;;;;;;27.52;5.40;;;;;;;;;;6218269;23;20280;-94
2023/04/21 07:45:37;;;;;;;28.20;11.52;;;;;;;;;;6215855;23;20276;-92
2023/04/21 07:48:44;;;;;;;33.53;8.30;;;;;;;;;;6217643;23;20191;-93
2023/04/21 07:55:10;;;;;;;17.60;4.93;;;;;;;;;;6218642;23;20194;-92
2023/04/21 07:58:21;;;;;;;11.25;4.00;;;;;;;;;;6218774;23;20155;-91
2023/04/21 08:04:51;;;;;;;19.45;3.55;;;;;;;;;;6217120;23;20196;-93
2023/04/21 08:07:57;;;;;;;7.50;3.42;;;;;;;;;;6216670;23;20220;-92
2023/04/21 08:11:03;;;;;;;8.10;2.95;;;;;;;;;;6217389;23;20218;-92
2023/04/21 08:14:11;;;;;;;5.65;2.67;;;;;;;;;;6218434;23;20163;-91
2023/04/21 08:17:53;;;;;;;11.80;2.63;;;;;;;;;;6216665;23;20163;-89
2023/04/21 08:20:59;;;;;;;8.13;2.50;;;;;;;;;;6221347;23;20176;-93
2023/04/21 08:24:06;;;;;;;7.78;2.58;;;;;;;;;;6217974;23;20167;-93
2023/04/21 08:27:15;;;;;;;12.32;3.08;;;;;;;;;;6218233;23;20167;-93
